createdAt,value
2022-09-02T00:03:06.917Z,12.64
2022-09-02T00:08:19.680Z,12.65
2022-09-02T00:13:28.632Z,12.63
2022-09-02T00:18:36.697Z,12.59
2022-09-02T00:23:45.848Z,12.56
2022-09-02T00:28:55.879Z,12.52
2022-09-02T00:34:05.626Z,12.49
2022-09-02T00:39:14.720Z,12.52
2022-09-02T00:44:29.650Z,12.53
2022-09-02T00:49:43.259Z,12.42
2022-09-02T00:54:58.898Z,12.36
2022-09-02T01:00:22.137Z,12.29
2022-09-02T01:05:40.651Z,12.10
2022-09-02T01:10:53.559Z,11.92
2022-09-02T01:16:22.825Z,11.75
2022-09-02T01:21:33.254Z,11.52
2022-09-02T01:26:53.370Z,11.36
2022-09-02T01:32:02.950Z,11.22
2022-09-02T01:37:14.828Z,11.13
2022-09-02T01:42:23.698Z,11.04
2022-09-02T01:47:34.945Z,10.98
2022-09-02T01:52:52.744Z,10.90
2022-09-02T01:58:00.967Z,10.82
2022-09-02T02:03:09.141Z,10.72
2022-09-02T02:08:25.555Z,10.62
2022-09-02T02:13:34.398Z,10.57
2022-09-02T02:18:45.643Z,10.53
2022-09-02T02:24:00.929Z,10.46
2022-09-02T02:29:09.311Z,10.40
2022-09-02T02:34:18.462Z,10.36
2022-09-02T02:39:26.327Z,10.27
2022-09-02T02:44:37.114Z,10.23
2022-09-02T02:49:49.452Z,10.22
2022-09-02T02:54:57.555Z,10.17
2022-09-02T03:00:10.286Z,10.07
2022-09-02T03:05:19.891Z,9.98
2022-09-02T03:10:28.683Z,9.93
2022-09-02T03:15:41.126Z,9.88
2022-09-02T03:20:50.973Z,9.89
2022-09-02T03:25:59.300Z,9.87
2022-09-02T03:31:15.709Z,9.83
2022-09-02T03:36:27.088Z,9.75
2022-09-02T03:41:41.682Z,9.70
2022-09-02T03:46:53.392Z,9.67
2022-09-02T03:52:01.179Z,9.63
2022-09-02T03:57:11.519Z,9.61
2022-09-02T04:02:23.029Z,9.54
2022-09-02T04:07:31.159Z,9.49
2022-09-02T04:12:39.212Z,9.47
2022-09-02T04:17:48.478Z,9.42
2022-09-02T04:23:14.817Z,9.44
2022-09-02T04:28:26.270Z,9.42
2022-09-02T04:33:37.516Z,9.36
2022-09-02T04:38:48.981Z,9.30
2022-09-02T04:43:59.705Z,9.34
2022-09-02T04:49:10.182Z,9.42
2022-09-02T04:54:18.421Z,9.48
2022-09-02T04:59:38.756Z,9.54
2022-09-02T05:05:02.793Z,9.69
2022-09-02T05:10:18.644Z,9.90
2022-09-02T05:15:33.670Z,10.17
2022-09-02T05:20:41.289Z,10.52
2022-09-02T05:25:49.877Z,11.05
2022-09-02T05:31:04.314Z,11.52
2022-09-02T05:36:31.862Z,11.83
2022-09-02T05:42:11.260Z,12.21
2022-09-02T05:47:22.598Z,12.40
2022-09-02T05:52:35.375Z,12.59
2022-09-02T05:57:43.907Z,12.74
2022-09-02T06:02:52.638Z,12.87
2022-09-02T06:08:01.743Z,13.02
2022-09-02T06:13:12.139Z,13.14
2022-09-02T06:18:20.499Z,13.16
2022-09-02T06:23:35.582Z,13.17
2022-09-02T06:28:47.289Z,13.22
2022-09-02T06:33:58.835Z,13.24
2022-09-02T06:39:12.695Z,13.24
2022-09-02T06:44:25.270Z,13.22
2022-09-02T06:49:33.193Z,13.20
2022-09-02T06:54:45.570Z,13.27
2022-09-02T07:00:00.026Z,13.34
2022-09-02T07:05:20.026Z,13.42
2022-09-02T07:10:36.181Z,13.50
2022-09-02T07:15:44.770Z,13.55
2022-09-02T07:20:54.022Z,13.63
2022-09-02T07:26:07.617Z,13.77
2022-09-02T07:44:24.014Z,14.29
2022-09-02T07:50:15.637Z,14.44
2022-09-02T07:55:03.471Z,14.62
2022-09-02T08:00:15.145Z,14.81
2022-09-02T08:05:24.304Z,15.07
2022-09-02T08:10:37.639Z,15.42
2022-09-02T08:15:50.891Z,15.77
2022-09-02T08:20:58.203Z,16.06
2022-09-02T08:26:05.821Z,16.26
2022-09-02T08:31:14.672Z,16.46
2022-09-02T08:36:23.117Z,16.64
2022-09-02T08:41:38.665Z,16.75
2022-09-02T08:46:51.068Z,16.82
2022-09-02T08:52:08.837Z,16.86
2022-09-02T08:57:19.420Z,16.90
2022-09-02T09:02:36.195Z,16.90
2022-09-02T09:08:01.812Z,16.93
2022-09-02T09:13:23.544Z,16.94
2022-09-02T09:18:49.562Z,16.96
2022-09-02T09:24:01.611Z,17.01
2022-09-02T09:29:30.385Z,17.09
2022-09-02T09:35:20.876Z,17.20
2022-09-02T09:40:46.562Z,17.26
2022-09-02T09:45:55.758Z,17.27
2022-09-02T09:51:18.521Z,17.34
2022-09-02T09:56:37.311Z,17.42
2022-09-02T10:01:53.847Z,17.48
2022-09-02T10:07:02.987Z,17.54
2022-09-02T10:12:13.814Z,17.65
2022-09-02T10:17:34.486Z,17.71
2022-09-02T10:23:20.047Z,17.81
2022-09-02T10:28:45.229Z,17.78
2022-09-02T10:34:06.037Z,17.67
2022-09-02T10:39:27.506Z,17.62
2022-09-02T10:44:55.666Z,17.64
2022-09-02T10:50:24.865Z,17.72
2022-09-02T10:55:46.431Z,17.77
2022-09-02T11:01:04.643Z,17.87
2022-09-02T11:06:21.823Z,18.01
2022-09-02T11:11:38.743Z,18.13
2022-09-02T11:16:51.681Z,18.25
2022-09-02T11:22:09.215Z,18.33
2022-09-02T11:27:42.125Z,18.37
2022-09-02T11:33:01.329Z,18.31
2022-09-02T11:38:22.460Z,18.23
2022-09-02T11:43:43.847Z,18.21
2022-09-02T11:49:25.339Z,18.17
2022-09-02T11:54:50.633Z,18.21
2022-09-02T12:00:28.073Z,18.34
2022-09-02T12:05:53.127Z,18.43
2022-09-02T12:11:05.300Z,18.47
2022-09-02T12:16:44.999Z,18.47
2022-09-02T12:22:53.950Z,18.43
2022-09-02T12:28:25.022Z,18.37
2022-09-02T12:33:34.927Z,18.39
2022-09-02T12:38:50.138Z,18.45
2022-09-02T12:44:19.310Z,18.55
2022-09-02T12:49:38.782Z,18.55
2022-09-02T12:54:50.389Z,18.51
2022-09-02T13:00:05.993Z,18.51
2022-09-02T13:05:29.136Z,18.52
2022-09-02T13:11:35.092Z,18.58
2022-09-02T13:16:55.313Z,18.73
2022-09-02T13:22:31.364Z,18.77
2022-09-02T13:28:14.383Z,18.72
2022-09-02T13:33:23.006Z,18.67
2022-09-02T13:38:34.470Z,18.60
2022-09-02T13:44:09.666Z,18.59
2022-09-02T13:49:27.156Z,18.61
2022-09-02T13:54:38.101Z,18.63
2022-09-02T13:59:53.258Z,18.63
2022-09-02T14:05:04.113Z,18.62
2022-09-02T14:10:21.745Z,18.61
2022-09-02T14:15:40.399Z,18.61
2022-09-02T14:21:08.645Z,18.63
2022-09-02T14:26:25.673Z,18.62
2022-09-02T14:31:34.468Z,18.59
2022-09-02T14:36:43.254Z,18.60
2022-09-02T14:41:59.478Z,18.62
2022-09-02T14:47:20.686Z,18.60
2022-09-02T14:52:33.612Z,18.60
2022-09-02T14:57:42.545Z,18.63
2022-09-02T15:02:57.644Z,18.63
2022-09-02T15:08:05.539Z,18.62
2022-09-02T15:13:15.324Z,18.63
2022-09-02T15:18:23.170Z,18.62
2022-09-02T15:23:34.672Z,18.60
2022-09-02T15:28:42.402Z,18.56
2022-09-02T15:33:53.447Z,18.53
2022-09-02T15:39:02.092Z,18.49
2022-09-02T15:44:10.268Z,18.46
2022-09-02T15:49:21.760Z,18.43
2022-09-02T15:54:33.615Z,18.39
2022-09-02T15:59:42.720Z,18.36
2022-09-02T16:04:50.769Z,18.33
2022-09-02T16:10:04.899Z,18.30
2022-09-02T16:15:21.159Z,18.27
2022-09-02T16:20:31.036Z,18.24
2022-09-02T16:25:44.678Z,18.22
2022-09-02T16:30:56.484Z,18.19
2022-09-02T16:36:08.704Z,18.15
2022-09-02T16:41:29.842Z,18.11
2022-09-02T16:47:01.410Z,18.05
2022-09-02T16:52:10.633Z,17.97
2022-09-02T16:57:25.613Z,17.94
2022-09-02T17:02:41.980Z,17.90
2022-09-02T17:07:57.828Z,17.86
2022-09-02T17:13:07.607Z,17.82
2022-09-02T17:18:19.232Z,17.79
2022-09-02T17:23:28.144Z,17.74
2022-09-02T17:28:47.060Z,17.68
2022-09-02T17:33:59.311Z,17.62
2022-09-02T17:39:13.509Z,17.56
2022-09-02T17:44:22.073Z,17.51
2022-09-02T17:49:30.413Z,17.47
2022-09-02T17:54:43.787Z,17.42
2022-09-02T18:00:08.035Z,17.36
2022-09-02T18:05:33.306Z,17.29
2022-09-02T18:10:57.247Z,17.24
2022-09-02T18:16:23.068Z,17.17
2022-09-02T18:21:56.164Z,17.10
2022-09-02T18:27:18.375Z,17.03
2022-09-02T18:33:03.222Z,16.97
2022-09-02T18:38:24.417Z,16.91
2022-09-02T18:43:45.199Z,16.83
2022-09-02T19:29:36.933Z,16.20
2022-09-02T19:34:49.406Z,16.16
2022-09-02T19:52:32.048Z,16.02
2022-09-02T19:57:40.691Z,15.99
2022-09-02T20:02:50.096Z,15.98
2022-09-02T20:08:03.285Z,15.96
2022-09-02T20:13:13.922Z,15.91
2022-09-02T20:18:23.289Z,15.87
2022-09-02T20:23:33.800Z,15.81
2022-09-02T20:28:56.443Z,15.76
2022-09-02T20:34:18.159Z,15.71
2022-09-02T20:39:45.552Z,15.66
2022-09-02T20:45:07.365Z,15.59
2022-09-02T20:50:32.596Z,15.53
2022-09-02T20:55:47.418Z,15.48
2022-09-02T21:01:11.142Z,15.40
2022-09-02T21:06:22.420Z,15.33
2022-09-02T21:11:38.166Z,15.29
2022-09-02T21:16:50.309Z,15.22
2022-09-02T21:22:03.233Z,15.13
2022-09-02T21:27:18.261Z,15.07
2022-09-02T21:32:31.976Z,15.01
2022-09-02T21:37:41.052Z,14.92
2022-09-02T21:43:10.472Z,14.85
2022-09-02T21:48:35.187Z,14.75
2022-09-02T22:01:44.214Z,14.55
2022-09-02T22:07:00.837Z,14.44
2022-09-02T22:12:14.875Z,14.40
2022-09-02T22:17:31.988Z,14.37
2022-09-02T22:22:44.954Z,14.35
2022-09-02T22:28:02.886Z,14.33
2022-09-02T22:33:14.313Z,14.29
2022-09-02T22:38:26.787Z,14.23
2022-09-02T22:43:41.815Z,14.11
2022-09-02T22:49:15.149Z,13.95
2022-09-02T23:00:10.694Z,13.78
2022-09-02T23:05:48.074Z,13.79
2022-09-02T23:10:59.722Z,13.76
2022-09-02T23:16:15.219Z,13.63
2022-09-02T23:21:29.408Z,13.51
2022-09-02T23:26:45.249Z,13.29
2022-09-02T23:32:23.812Z,13.09
2022-09-02T23:37:41.767Z,12.90
2022-09-02T23:42:48.873Z,12.78
2022-09-02T23:48:12.828Z,12.78
2022-09-02T23:53:25.632Z,12.87
2022-09-02T23:58:52.628Z,12.97
